sensor_id;sensor_type;location;lat;lon;timestamp;P1;durP1;ratioP1;P2;durP2;ratioP2
81223;SDS011;70698;44.402;18.522;2023-07-31T00:00:24;5.55;;;4.75;;
81223;SDS011;70698;44.402;18.522;2023-07-31T00:02:50;5.70;;;5.10;;
81223;SDS011;70698;44.402;18.522;2023-07-31T00:05:17;7.75;;;5.70;;
81223;SDS011;70698;44.402;18.522;2023-07-31T00:07:43;6.88;;;5.72;;
81223;SDS011;70698;44.402;18.522;2023-07-31T00:10:08;5.50;;;5.00;;
81223;SDS011;70698;44.402;18.522;2023-07-31T00:12:34;6.22;;;5.13;;
81223;SDS011;70698;44.402;18.522;2023-07-31T00:15:00;5.63;;;5.13;;
81223;SDS011;70698;44.402;18.522;2023-07-31T00:17:25;5.93;;;5.30;;
81223;SDS011;70698;44.402;18.522;2023-07-31T00:19:51;5.15;;;4.65;;
81223;SDS011;70698;44.402;18.522;2023-07-31T00:22:16;7.78;;;5.13;;
81223;SDS011;70698;44.402;18.522;2023-07-31T00:24:42;5.80;;;5.03;;
81223;SDS011;70698;44.402;18.522;2023-07-31T00:27:08;5.78;;;5.18;;
81223;SDS011;70698;44.402;18.522;2023-07-31T00:29:33;5.65;;;5.05;;
81223;SDS011;70698;44.402;18.522;2023-07-31T00:31:59;5.10;;;4.55;;
81223;SDS011;70698;44.402;18.522;2023-07-31T00:34:24;6.47;;;5.10;;
81223;SDS011;70698;44.402;18.522;2023-07-31T00:36:50;6.05;;;4.78;;
81223;SDS011;70698;44.402;18.522;2023-07-31T00:39:16;5.75;;;5.18;;
81223;SDS011;70698;44.402;18.522;2023-07-31T00:41:43;6.03;;;5.10;;
81223;SDS011;70698;44.402;18.522;2023-07-31T00:44:09;8.35;;;5.40;;
81223;SDS011;70698;44.402;18.522;2023-07-31T00:46:34;6.78;;;5.47;;
81223;SDS011;70698;44.402;18.522;2023-07-31T00:49:01;5.95;;;5.00;;
81223;SDS011;70698;44.402;18.522;2023-07-31T00:51:27;5.15;;;4.63;;
81223;SDS011;70698;44.402;18.522;2023-07-31T00:53:53;6.10;;;5.18;;
81223;SDS011;70698;44.402;18.522;2023-07-31T00:56:22;5.13;;;4.60;;
81223;SDS011;70698;44.402;18.522;2023-07-31T00:58:48;5.45;;;4.63;;
81223;SDS011;70698;44.402;18.522;2023-07-31T01:01:14;5.72;;;5.22;;
81223;SDS011;70698;44.402;18.522;2023-07-31T01:03:40;8.38;;;5.20;;
81223;SDS011;70698;44.402;18.522;2023-07-31T01:06:13;5.55;;;4.75;;
81223;SDS011;70698;44.402;18.522;2023-07-31T01:11:52;7.50;;;5.40;;
81223;SDS011;70698;44.402;18.522;2023-07-31T01:14:21;6.40;;;5.10;;
81223;SDS011;70698;44.402;18.522;2023-07-31T01:16:46;6.07;;;5.50;;
81223;SDS011;70698;44.402;18.522;2023-07-31T01:19:12;6.10;;;5.45;;
81223;SDS011;70698;44.402;18.522;2023-07-31T01:24:40;5.80;;;5.15;;
81223;SDS011;70698;44.402;18.522;2023-07-31T01:27:21;6.22;;;5.45;;
81223;SDS011;70698;44.402;18.522;2023-07-31T01:32:25;6.65;;;5.88;;
81223;SDS011;70698;44.402;18.522;2023-07-31T01:34:54;6.43;;;5.72;;
81223;SDS011;70698;44.402;18.522;2023-07-31T01:37:27;6.15;;;5.47;;
81223;SDS011;70698;44.402;18.522;2023-07-31T01:39:54;6.78;;;5.97;;
81223;SDS011;70698;44.402;18.522;2023-07-31T01:42:19;6.95;;;5.80;;
81223;SDS011;70698;44.402;18.522;2023-07-31T01:44:45;6.82;;;5.80;;
81223;SDS011;70698;44.402;18.522;2023-07-31T01:47:10;8.27;;;5.60;;
81223;SDS011;70698;44.402;18.522;2023-07-31T01:49:36;6.43;;;5.75;;
81223;SDS011;70698;44.402;18.522;2023-07-31T01:52:02;6.95;;;5.88;;
81223;SDS011;70698;44.402;18.522;2023-07-31T01:54:27;7.18;;;6.18;;
81223;SDS011;70698;44.402;18.522;2023-07-31T01:56:53;6.70;;;6.00;;
81223;SDS011;70698;44.402;18.522;2023-07-31T01:59:19;6.60;;;6.00;;
81223;SDS011;70698;44.402;18.522;2023-07-31T02:01:44;7.93;;;6.10;;
81223;SDS011;70698;44.402;18.522;2023-07-31T02:04:10;6.63;;;5.93;;
81223;SDS011;70698;44.402;18.522;2023-07-31T02:06:36;8.15;;;6.50;;
81223;SDS011;70698;44.402;18.522;2023-07-31T02:09:03;18.17;;;16.47;;
81223;SDS011;70698;44.402;18.522;2023-07-31T02:11:31;8.00;;;7.22;;
81223;SDS011;70698;44.402;18.522;2023-07-31T02:13:56;8.38;;;7.32;;
81223;SDS011;70698;44.402;18.522;2023-07-31T02:16:22;8.30;;;7.25;;
81223;SDS011;70698;44.402;18.522;2023-07-31T02:18:47;7.60;;;6.47;;
81223;SDS011;70698;44.402;18.522;2023-07-31T02:21:13;6.88;;;6.10;;
81223;SDS011;70698;44.402;18.522;2023-07-31T02:23:38;6.40;;;5.78;;
81223;SDS011;70698;44.402;18.522;2023-07-31T02:26:04;7.07;;;6.22;;
81223;SDS011;70698;44.402;18.522;2023-07-31T02:28:30;6.80;;;6.10;;
81223;SDS011;70698;44.402;18.522;2023-07-31T02:30:56;7.40;;;6.50;;
81223;SDS011;70698;44.402;18.522;2023-07-31T02:33:21;7.43;;;6.70;;
81223;SDS011;70698;44.402;18.522;2023-07-31T02:35:47;7.30;;;6.60;;
81223;SDS011;70698;44.402;18.522;2023-07-31T02:38:12;7.22;;;6.53;;
81223;SDS011;70698;44.402;18.522;2023-07-31T02:40:41;8.00;;;6.50;;
81223;SDS011;70698;44.402;18.522;2023-07-31T02:43:07;7.15;;;6.38;;
81223;SDS011;70698;44.402;18.522;2023-07-31T02:45:33;7.50;;;6.80;;
81223;SDS011;70698;44.402;18.522;2023-07-31T02:47:58;8.95;;;6.63;;
81223;SDS011;70698;44.402;18.522;2023-07-31T02:50:24;6.68;;;5.85;;
81223;SDS011;70698;44.402;18.522;2023-07-31T02:52:50;7.93;;;6.10;;
81223;SDS011;70698;44.402;18.522;2023-07-31T02:55:15;7.22;;;6.18;;
81223;SDS011;70698;44.402;18.522;2023-07-31T02:57:41;7.22;;;6.00;;
81223;SDS011;70698;44.402;18.522;2023-07-31T03:00:07;7.38;;;6.63;;
81223;SDS011;70698;44.402;18.522;2023-07-31T03:02:32;7.63;;;6.32;;
81223;SDS011;70698;44.402;18.522;2023-07-31T03:04:58;8.43;;;7.53;;
81223;SDS011;70698;44.402;18.522;2023-07-31T03:07:26;9.77;;;6.70;;
81223;SDS011;70698;44.402;18.522;2023-07-31T03:09:52;10.23;;;6.38;;
81223;SDS011;70698;44.402;18.522;2023-07-31T03:12:19;9.90;;;8.48;;
81223;SDS011;70698;44.402;18.522;2023-07-31T03:14:45;9.82;;;7.80;;
81223;SDS011;70698;44.402;18.522;2023-07-31T03:17:11;7.47;;;6.57;;
81223;SDS011;70698;44.402;18.522;2023-07-31T03:19:36;6.93;;;6.32;;
81223;SDS011;70698;44.402;18.522;2023-07-31T03:22:02;7.00;;;6.30;;
81223;SDS011;70698;44.402;18.522;2023-07-31T03:24:28;7.97;;;5.82;;
81223;SDS011;70698;44.402;18.522;2023-07-31T03:26:54;6.32;;;5.72;;
81223;SDS011;70698;44.402;18.522;2023-07-31T03:29:21;9.15;;;6.07;;
81223;SDS011;70698;44.402;18.522;2023-07-31T03:31:47;6.30;;;5.70;;
81223;SDS011;70698;44.402;18.522;2023-07-31T03:34:12;6.45;;;5.85;;
81223;SDS011;70698;44.402;18.522;2023-07-31T03:36:38;7.38;;;5.90;;
81223;SDS011;70698;44.402;18.522;2023-07-31T03:39:04;6.35;;;5.50;;
81223;SDS011;70698;44.402;18.522;2023-07-31T03:41:29;7.38;;;6.68;;
81223;SDS011;70698;44.402;18.522;2023-07-31T03:43:55;7.32;;;6.47;;
81223;SDS011;70698;44.402;18.522;2023-07-31T03:46:24;7.20;;;5.70;;
81223;SDS011;70698;44.402;18.522;2023-07-31T03:48:50;6.65;;;6.00;;
81223;SDS011;70698;44.402;18.522;2023-07-31T03:51:16;6.50;;;5.90;;
81223;SDS011;70698;44.402;18.522;2023-07-31T03:53:42;7.57;;;6.30;;
81223;SDS011;70698;44.402;18.522;2023-07-31T03:56:09;6.80;;;5.68;;
81223;SDS011;70698;44.402;18.522;2023-07-31T03:58:35;7.95;;;6.20;;
81223;SDS011;70698;44.402;18.522;2023-07-31T04:01:02;8.85;;;6.30;;
81223;SDS011;70698;44.402;18.522;2023-07-31T04:03:28;7.68;;;5.75;;
81223;SDS011;70698;44.402;18.522;2023-07-31T04:05:54;11.73;;;7.95;;
81223;SDS011;70698;44.402;18.522;2023-07-31T04:08:23;10.32;;;9.30;;
81223;SDS011;70698;44.402;18.522;2023-07-31T04:10:49;11.32;;;8.45;;
81223;SDS011;70698;44.402;18.522;2023-07-31T04:13:15;9.30;;;7.10;;
81223;SDS011;70698;44.402;18.522;2023-07-31T04:15:40;9.60;;;7.03;;
81223;SDS011;70698;44.402;18.522;2023-07-31T04:18:06;10.30;;;7.05;;
81223;SDS011;70698;44.402;18.522;2023-07-31T04:20:32;9.25;;;7.40;;
81223;SDS011;70698;44.402;18.522;2023-07-31T04:22:57;9.27;;;7.07;;
81223;SDS011;70698;44.402;18.522;2023-07-31T04:25:23;9.73;;;7.20;;
81223;SDS011;70698;44.402;18.522;2023-07-31T04:27:49;8.23;;;7.10;;
81223;SDS011;70698;44.402;18.522;2023-07-31T04:30:14;9.50;;;7.22;;
81223;SDS011;70698;44.402;18.522;2023-07-31T04:32:40;10.63;;;7.22;;
81223;SDS011;70698;44.402;18.522;2023-07-31T04:35:06;8.55;;;7.22;;
81223;SDS011;70698;44.402;18.522;2023-07-31T04:37:32;8.38;;;7.45;;
81223;SDS011;70698;44.402;18.522;2023-07-31T04:39:57;10.27;;;6.95;;
81223;SDS011;70698;44.402;18.522;2023-07-31T04:42:23;7.80;;;7.00;;
81223;SDS011;70698;44.402;18.522;2023-07-31T04:44:48;9.93;;;7.38;;
81223;SDS011;70698;44.402;18.522;2023-07-31T04:47:14;7.97;;;7.18;;
81223;SDS011;70698;44.402;18.522;2023-07-31T04:49:39;9.32;;;7.07;;
81223;SDS011;70698;44.402;18.522;2023-07-31T04:52:05;10.55;;;8.40;;
81223;SDS011;70698;44.402;18.522;2023-07-31T04:54:31;10.32;;;8.00;;
81223;SDS011;70698;44.402;18.522;2023-07-31T04:56:56;9.70;;;8.00;;
81223;SDS011;70698;44.402;18.522;2023-07-31T04:59:22;8.30;;;7.50;;
81223;SDS011;70698;44.402;18.522;2023-07-31T05:01:47;9.43;;;7.40;;
81223;SDS011;70698;44.402;18.522;2023-07-31T05:04:13;11.15;;;8.07;;
81223;SDS011;70698;44.402;18.522;2023-07-31T05:06:40;9.40;;;8.18;;
81223;SDS011;70698;44.402;18.522;2023-07-31T05:09:06;9.90;;;8.07;;
81223;SDS011;70698;44.402;18.522;2023-07-31T05:11:32;14.25;;;8.60;;
81223;SDS011;70698;44.402;18.522;2023-07-31T05:13:57;11.45;;;8.40;;
81223;SDS011;70698;44.402;18.522;2023-07-31T05:16:23;11.50;;;7.45;;
81223;SDS011;70698;44.402;18.522;2023-07-31T05:18:48;8.13;;;7.30;;
81223;SDS011;70698;44.402;18.522;2023-07-31T05:21:14;7.80;;;7.00;;
81223;SDS011;70698;44.402;18.522;2023-07-31T05:23:39;9.55;;;6.82;;
81223;SDS011;70698;44.402;18.522;2023-07-31T05:26:06;7.55;;;6.55;;
81223;SDS011;70698;44.402;18.522;2023-07-31T05:28:33;6.88;;;6.10;;
81223;SDS011;70698;44.402;18.522;2023-07-31T05:31:00;7.88;;;6.50;;
81223;SDS011;70698;44.402;18.522;2023-07-31T05:33:26;6.57;;;5.95;;
81223;SDS011;70698;44.402;18.522;2023-07-31T05:35:52;8.30;;;6.43;;
81223;SDS011;70698;44.402;18.522;2023-07-31T05:38:18;7.22;;;5.80;;
81223;SDS011;70698;44.402;18.522;2023-07-31T05:40:44;7.50;;;6.80;;
81223;SDS011;70698;44.402;18.522;2023-07-31T05:43:09;7.22;;;6.22;;
81223;SDS011;70698;44.402;18.522;2023-07-31T05:45:35;8.13;;;6.03;;
81223;SDS011;70698;44.402;18.522;2023-07-31T05:48:02;7.72;;;6.78;;
81223;SDS011;70698;44.402;18.522;2023-07-31T05:50:28;11.05;;;6.20;;
81223;SDS011;70698;44.402;18.522;2023-07-31T05:52:53;6.03;;;5.43;;
81223;SDS011;70698;44.402;18.522;2023-07-31T05:55:19;5.93;;;5.20;;
81223;SDS011;70698;44.402;18.522;2023-07-31T05:57:46;6.78;;;5.30;;
81223;SDS011;70698;44.402;18.522;2023-07-31T06:00:12;7.47;;;5.60;;
81223;SDS011;70698;44.402;18.522;2023-07-31T06:02:38;5.65;;;5.00;;
81223;SDS011;70698;44.402;18.522;2023-07-31T06:05:04;7.03;;;4.90;;
81223;SDS011;70698;44.402;18.522;2023-07-31T06:07:31;6.72;;;5.32;;
81223;SDS011;70698;44.402;18.522;2023-07-31T06:09:57;7.80;;;4.43;;
81223;SDS011;70698;44.402;18.522;2023-07-31T06:12:28;8.52;;;4.47;;
81223;SDS011;70698;44.402;18.522;2023-07-31T06:14:54;27.00;;;18.15;;
81223;SDS011;70698;44.402;18.522;2023-07-31T06:17:20;6.40;;;4.70;;
81223;SDS011;70698;44.402;18.522;2023-07-31T06:19:46;3.95;;;3.50;;
81223;SDS011;70698;44.402;18.522;2023-07-31T06:22:12;3.65;;;3.10;;
81223;SDS011;70698;44.402;18.522;2023-07-31T06:24:38;4.88;;;3.15;;
81223;SDS011;70698;44.402;18.522;2023-07-31T06:27:03;4.80;;;3.33;;
81223;SDS011;70698;44.402;18.522;2023-07-31T06:29:31;6.38;;;3.05;;
81223;SDS011;70698;44.402;18.522;2023-07-31T06:31:57;4.28;;;3.40;;
81223;SDS011;70698;44.402;18.522;2023-07-31T06:34:22;3.58;;;3.00;;
81223;SDS011;70698;44.402;18.522;2023-07-31T06:36:48;3.88;;;3.30;;
81223;SDS011;70698;44.402;18.522;2023-07-31T06:39:13;3.15;;;2.85;;
81223;SDS011;70698;44.402;18.522;2023-07-31T06:41:39;5.57;;;3.65;;
81223;SDS011;70698;44.402;18.522;2023-07-31T06:44:09;4.32;;;3.75;;
81223;SDS011;70698;44.402;18.522;2023-07-31T06:46:35;4.07;;;3.15;;
81223;SDS011;70698;44.402;18.522;2023-07-31T06:49:00;5.13;;;3.25;;
81223;SDS011;70698;44.402;18.522;2023-07-31T06:51:26;11.82;;;8.18;;
81223;SDS011;70698;44.402;18.522;2023-07-31T06:53:51;15.18;;;10.13;;
81223;SDS011;70698;44.402;18.522;2023-07-31T06:56:17;3.75;;;2.90;;
81223;SDS011;70698;44.402;18.522;2023-07-31T06:58:43;5.22;;;2.85;;
81223;SDS011;70698;44.402;18.522;2023-07-31T07:01:08;6.63;;;2.83;;
81223;SDS011;70698;44.402;18.522;2023-07-31T07:03:34;3.65;;;2.78;;
81223;SDS011;70698;44.402;18.522;2023-07-31T07:06:00;3.20;;;2.90;;
81223;SDS011;70698;44.402;18.522;2023-07-31T07:08:26;4.22;;;3.10;;
81223;SDS011;70698;44.402;18.522;2023-07-31T07:10:51;3.28;;;2.70;;
81223;SDS011;70698;44.402;18.522;2023-07-31T07:13:17;3.55;;;3.00;;
81223;SDS011;70698;44.402;18.522;2023-07-31T07:15:47;3.42;;;2.65;;
81223;SDS011;70698;44.402;18.522;2023-07-31T07:18:13;4.78;;;2.80;;
81223;SDS011;70698;44.402;18.522;2023-07-31T07:20:39;3.92;;;3.03;;
81223;SDS011;70698;44.402;18.522;2023-07-31T07:23:05;4.75;;;3.35;;
81223;SDS011;70698;44.402;18.522;2023-07-31T07:25:31;3.70;;;2.80;;
81223;SDS011;70698;44.402;18.522;2023-07-31T07:27:56;3.30;;;3.00;;
81223;SDS011;70698;44.402;18.522;2023-07-31T07:30:22;3.55;;;2.90;;
81223;SDS011;70698;44.402;18.522;2023-07-31T07:32:50;4.15;;;3.30;;
81223;SDS011;70698;44.402;18.522;2023-07-31T07:35:15;5.93;;;3.20;;
81223;SDS011;70698;44.402;18.522;2023-07-31T07:37:41;3.83;;;2.97;;
81223;SDS011;70698;44.402;18.522;2023-07-31T07:40:07;4.75;;;3.13;;
81223;SDS011;70698;44.402;18.522;2023-07-31T07:42:33;3.53;;;2.92;;
81223;SDS011;70698;44.402;18.522;2023-07-31T07:44:58;4.53;;;3.45;;
81223;SDS011;70698;44.402;18.522;2023-07-31T07:47:24;4.22;;;3.17;;
81223;SDS011;70698;44.402;18.522;2023-07-31T07:49:50;4.72;;;3.40;;
81223;SDS011;70698;44.402;18.522;2023-07-31T07:52:15;5.35;;;4.03;;
81223;SDS011;70698;44.402;18.522;2023-07-31T07:54:41;6.88;;;4.15;;
81223;SDS011;70698;44.402;18.522;2023-07-31T07:57:06;4.18;;;3.60;;
81223;SDS011;70698;44.402;18.522;2023-07-31T07:59:32;5.20;;;3.22;;
81223;SDS011;70698;44.402;18.522;2023-07-31T08:01:57;4.45;;;4.05;;
81223;SDS011;70698;44.402;18.522;2023-07-31T08:04:23;8.02;;;4.18;;
81223;SDS011;70698;44.402;18.522;2023-07-31T08:06:48;7.15;;;3.90;;
81223;SDS011;70698;44.402;18.522;2023-07-31T08:09:14;5.90;;;4.38;;
81223;SDS011;70698;44.402;18.522;2023-07-31T08:11:40;6.57;;;4.10;;
81223;SDS011;70698;44.402;18.522;2023-07-31T08:14:05;5.70;;;3.88;;
81223;SDS011;70698;44.402;18.522;2023-07-31T08:16:31;4.53;;;3.50;;
81223;SDS011;70698;44.402;18.522;2023-07-31T08:18:57;4.18;;;3.60;;
81223;SDS011;70698;44.402;18.522;2023-07-31T08:21:22;3.97;;;3.47;;
81223;SDS011;70698;44.402;18.522;2023-07-31T08:23:48;7.30;;;4.57;;
81223;SDS011;70698;44.402;18.522;2023-07-31T08:26:15;6.88;;;4.93;;
81223;SDS011;70698;44.402;18.522;2023-07-31T08:28:41;4.23;;;3.20;;
81223;SDS011;70698;44.402;18.522;2023-07-31T08:31:07;8.35;;;3.80;;
81223;SDS011;70698;44.402;18.522;2023-07-31T08:33:32;5.57;;;3.38;;
81223;SDS011;70698;44.402;18.522;2023-07-31T08:35:58;3.78;;;3.25;;
81223;SDS011;70698;44.402;18.522;2023-07-31T08:38:25;3.78;;;3.35;;
81223;SDS011;70698;44.402;18.522;2023-07-31T08:40:51;5.00;;;3.37;;
81223;SDS011;70698;44.402;18.522;2023-07-31T08:43:17;4.40;;;3.13;;
81223;SDS011;70698;44.402;18.522;2023-07-31T08:45:45;4.03;;;3.20;;
81223;SDS011;70698;44.402;18.522;2023-07-31T08:48:12;4.88;;;3.20;;
81223;SDS011;70698;44.402;18.522;2023-07-31T08:50:41;3.47;;;3.17;;
81223;SDS011;70698;44.402;18.522;2023-07-31T08:53:07;4.70;;;3.58;;
81223;SDS011;70698;44.402;18.522;2023-07-31T08:55:33;3.35;;;2.72;;
81223;SDS011;70698;44.402;18.522;2023-07-31T08:57:59;3.85;;;2.70;;
81223;SDS011;70698;44.402;18.522;2023-07-31T09:00:28;3.00;;;2.70;;
81223;SDS011;70698;44.402;18.522;2023-07-31T09:02:59;6.32;;;3.50;;
81223;SDS011;70698;44.402;18.522;2023-07-31T09:05:33;3.90;;;3.33;;
81223;SDS011;70698;44.402;18.522;2023-07-31T09:10:28;3.75;;;3.40;;
81223;SDS011;70698;44.402;18.522;2023-07-31T09:12:53;4.65;;;3.30;;
81223;SDS011;70698;44.402;18.522;2023-07-31T09:15:20;3.40;;;2.93;;
81223;SDS011;70698;44.402;18.522;2023-07-31T09:17:48;4.68;;;3.20;;
81223;SDS011;70698;44.402;18.522;2023-07-31T09:20:24;5.88;;;3.40;;
81223;SDS011;70698;44.402;18.522;2023-07-31T09:22:50;6.47;;;3.60;;
81223;SDS011;70698;44.402;18.522;2023-07-31T09:25:20;7.68;;;3.60;;
81223;SDS011;70698;44.402;18.522;2023-07-31T09:30:16;7.85;;;4.20;;
81223;SDS011;70698;44.402;18.522;2023-07-31T09:32:43;6.88;;;4.05;;
81223;SDS011;70698;44.402;18.522;2023-07-31T09:35:13;5.95;;;4.00;;
81223;SDS011;70698;44.402;18.522;2023-07-31T09:37:49;5.80;;;5.15;;
81223;SDS011;70698;44.402;18.522;2023-07-31T09:40:52;6.03;;;5.35;;
81223;SDS011;70698;44.402;18.522;2023-07-31T09:43:17;9.63;;;6.57;;
81223;SDS011;70698;44.402;18.522;2023-07-31T09:45:44;8.45;;;6.60;;
81223;SDS011;70698;44.402;18.522;2023-07-31T09:48:12;7.30;;;6.35;;
81223;SDS011;70698;44.402;18.522;2023-07-31T09:50:44;7.03;;;6.32;;
81223;SDS011;70698;44.402;18.522;2023-07-31T09:53:11;5.75;;;5.15;;
81223;SDS011;70698;44.402;18.522;2023-07-31T09:55:37;7.97;;;5.10;;
81223;SDS011;70698;44.402;18.522;2023-07-31T09:58:04;5.45;;;4.40;;
81223;SDS011;70698;44.402;18.522;2023-07-31T10:00:31;7.32;;;4.50;;
81223;SDS011;70698;44.402;18.522;2023-07-31T10:03:00;6.43;;;4.20;;
81223;SDS011;70698;44.402;18.522;2023-07-31T10:08:15;5.50;;;4.03;;
81223;SDS011;70698;44.402;18.522;2023-07-31T10:10:42;5.65;;;4.20;;
81223;SDS011;70698;44.402;18.522;2023-07-31T10:13:09;3.92;;;3.53;;
81223;SDS011;70698;44.402;18.522;2023-07-31T10:15:35;5.72;;;3.92;;
81223;SDS011;70698;44.402;18.522;2023-07-31T10:18:01;7.03;;;3.97;;
81223;SDS011;70698;44.402;18.522;2023-07-31T10:20:27;6.47;;;4.40;;
81223;SDS011;70698;44.402;18.522;2023-07-31T10:22:54;6.70;;;3.90;;
81223;SDS011;70698;44.402;18.522;2023-07-31T10:25:21;9.27;;;3.92;;
81223;SDS011;70698;44.402;18.522;2023-07-31T10:27:47;4.20;;;3.40;;
81223;SDS011;70698;44.402;18.522;2023-07-31T10:32:42;18.08;;;15.57;;
81223;SDS011;70698;44.402;18.522;2023-07-31T10:35:09;30.23;;;24.23;;
81223;SDS011;70698;44.402;18.522;2023-07-31T10:37:37;5.05;;;3.75;;
81223;SDS011;70698;44.402;18.522;2023-07-31T10:40:26;4.43;;;3.20;;
81223;SDS011;70698;44.402;18.522;2023-07-31T10:42:53;3.22;;;2.50;;
81223;SDS011;70698;44.402;18.522;2023-07-31T10:45:33;4.07;;;3.00;;
81223;SDS011;70698;44.402;18.522;2023-07-31T10:48:03;3.58;;;2.95;;
81223;SDS011;70698;44.402;18.522;2023-07-31T10:50:37;4.85;;;3.42;;
81223;SDS011;70698;44.402;18.522;2023-07-31T10:53:10;7.97;;;3.33;;
81223;SDS011;70698;44.402;18.522;2023-07-31T10:56:00;5.30;;;3.17;;
81223;SDS011;70698;44.402;18.522;2023-07-31T10:58:26;5.47;;;2.90;;
81223;SDS011;70698;44.402;18.522;2023-07-31T11:00:56;5.68;;;3.40;;
81223;SDS011;70698;44.402;18.522;2023-07-31T11:04:11;3.90;;;2.92;;
81223;SDS011;70698;44.402;18.522;2023-07-31T11:06:19;6.07;;;2.95;;
81223;SDS011;70698;44.402;18.522;2023-07-31T11:08:45;5.80;;;2.95;;
81223;SDS011;70698;44.402;18.522;2023-07-31T11:11:13;3.45;;;2.95;;
81223;SDS011;70698;44.402;18.522;2023-07-31T11:13:41;4.82;;;2.83;;
81223;SDS011;70698;44.402;18.522;2023-07-31T11:16:14;5.70;;;3.28;;
81223;SDS011;70698;44.402;18.522;2023-07-31T11:18:41;4.93;;;2.78;;
81223;SDS011;70698;44.402;18.522;2023-07-31T11:23:37;3.80;;;2.25;;
81223;SDS011;70698;44.402;18.522;2023-07-31T11:26:05;3.40;;;2.28;;
81223;SDS011;70698;44.402;18.522;2023-07-31T11:28:34;4.28;;;2.40;;
81223;SDS011;70698;44.402;18.522;2023-07-31T11:31:00;3.80;;;2.38;;
81223;SDS011;70698;44.402;18.522;2023-07-31T11:33:27;3.97;;;2.58;;
81223;SDS011;70698;44.402;18.522;2023-07-31T11:35:52;3.50;;;2.33;;
81223;SDS011;70698;44.402;18.522;2023-07-31T11:38:25;4.47;;;2.33;;
81223;SDS011;70698;44.402;18.522;2023-07-31T11:40:52;11.40;;;9.00;;
81223;SDS011;70698;44.402;18.522;2023-07-31T11:43:25;4.20;;;2.40;;
81223;SDS011;70698;44.402;18.522;2023-07-31T11:45:53;3.70;;;2.60;;
81223;SDS011;70698;44.402;18.522;2023-07-31T11:48:21;2.70;;;2.38;;
81223;SDS011;70698;44.402;18.522;2023-07-31T11:50:52;4.05;;;2.10;;
81223;SDS011;70698;44.402;18.522;2023-07-31T11:53:20;2.70;;;2.20;;
81223;SDS011;70698;44.402;18.522;2023-07-31T11:55:52;2.85;;;2.25;;
81223;SDS011;70698;44.402;18.522;2023-07-31T11:58:18;4.32;;;2.38;;
81223;SDS011;70698;44.402;18.522;2023-07-31T12:00:44;3.10;;;2.00;;
81223;SDS011;70698;44.402;18.522;2023-07-31T12:03:11;3.10;;;2.38;;
81223;SDS011;70698;44.402;18.522;2023-07-31T12:05:37;3.05;;;2.58;;
81223;SDS011;70698;44.402;18.522;2023-07-31T12:08:08;4.03;;;2.40;;
81223;SDS011;70698;44.402;18.522;2023-07-31T12:10:36;3.53;;;2.53;;
81223;SDS011;70698;44.402;18.522;2023-07-31T12:13:05;3.72;;;2.17;;
81223;SDS011;70698;44.402;18.522;2023-07-31T12:15:37;3.45;;;2.08;;
81223;SDS011;70698;44.402;18.522;2023-07-31T12:18:05;3.00;;;2.13;;
81223;SDS011;70698;44.402;18.522;2023-07-31T12:22:58;3.17;;;2.28;;
81223;SDS011;70698;44.402;18.522;2023-07-31T12:25:28;4.80;;;2.50;;
81223;SDS011;70698;44.402;18.522;2023-07-31T12:27:54;3.53;;;2.30;;
81223;SDS011;70698;44.402;18.522;2023-07-31T12:30:29;3.85;;;2.30;;
81223;SDS011;70698;44.402;18.522;2023-07-31T12:33:15;3.95;;;2.40;;
81223;SDS011;70698;44.402;18.522;2023-07-31T12:35:42;2.72;;;2.20;;
81223;SDS011;70698;44.402;18.522;2023-07-31T12:38:09;2.13;;;1.90;;
81223;SDS011;70698;44.402;18.522;2023-07-31T12:40:38;3.33;;;2.00;;
81223;SDS011;70698;44.402;18.522;2023-07-31T12:43:05;2.80;;;2.20;;
81223;SDS011;70698;44.402;18.522;2023-07-31T12:45:32;2.00;;;1.75;;
81223;SDS011;70698;44.402;18.522;2023-07-31T12:47:58;2.45;;;2.10;;
81223;SDS011;70698;44.402;18.522;2023-07-31T12:50:24;2.10;;;1.90;;
81223;SDS011;70698;44.402;18.522;2023-07-31T12:52:51;2.65;;;1.98;;
81223;SDS011;70698;44.402;18.522;2023-07-31T12:55:17;2.30;;;1.95;;
81223;SDS011;70698;44.402;18.522;2023-07-31T12:57:44;2.33;;;1.97;;
81223;SDS011;70698;44.402;18.522;2023-07-31T13:00:09;3.08;;;2.10;;
81223;SDS011;70698;44.402;18.522;2023-07-31T13:05:02;2.17;;;1.65;;
81223;SDS011;70698;44.402;18.522;2023-07-31T13:07:28;2.25;;;1.90;;
81223;SDS011;70698;44.402;18.522;2023-07-31T13:09:53;2.40;;;2.10;;
81223;SDS011;70698;44.402;18.522;2023-07-31T13:12:19;3.38;;;1.80;;
81223;SDS011;70698;44.402;18.522;2023-07-31T13:14:45;3.13;;;2.30;;
81223;SDS011;70698;44.402;18.522;2023-07-31T13:17:10;3.38;;;1.90;;
81223;SDS011;70698;44.402;18.522;2023-07-31T13:19:36;2.17;;;1.90;;
81223;SDS011;70698;44.402;18.522;2023-07-31T13:22:02;3.58;;;2.22;;
81223;SDS011;70698;44.402;18.522;2023-07-31T13:24:27;4.18;;;2.10;;
81223;SDS011;70698;44.402;18.522;2023-07-31T13:26:53;2.40;;;1.80;;
81223;SDS011;70698;44.402;18.522;2023-07-31T13:29:18;2.35;;;2.13;;
81223;SDS011;70698;44.402;18.522;2023-07-31T13:31:44;2.05;;;1.85;;
81223;SDS011;70698;44.402;18.522;2023-07-31T13:34:10;3.83;;;2.03;;
81223;SDS011;70698;44.402;18.522;2023-07-31T13:36:35;2.83;;;2.00;;
81223;SDS011;70698;44.402;18.522;2023-07-31T13:39:02;2.10;;;1.83;;
81223;SDS011;70698;44.402;18.522;2023-07-31T13:41:28;3.63;;;2.17;;
81223;SDS011;70698;44.402;18.522;2023-07-31T13:43:54;2.20;;;1.60;;
81223;SDS011;70698;44.402;18.522;2023-07-31T13:46:19;4.73;;;2.30;;
81223;SDS011;70698;44.402;18.522;2023-07-31T13:48:45;2.20;;;2.00;;
81223;SDS011;70698;44.402;18.522;2023-07-31T13:51:10;2.80;;;2.10;;
81223;SDS011;70698;44.402;18.522;2023-07-31T13:53:36;2.17;;;1.90;;
81223;SDS011;70698;44.402;18.522;2023-07-31T13:56:02;3.63;;;2.03;;
81223;SDS011;70698;44.402;18.522;2023-07-31T13:58:27;2.80;;;1.88;;
81223;SDS011;70698;44.402;18.522;2023-07-31T14:00:53;2.10;;;1.90;;
81223;SDS011;70698;44.402;18.522;2023-07-31T14:03:19;18.33;;;14.93;;
81223;SDS011;70698;44.402;18.522;2023-07-31T14:05:44;2.70;;;2.35;;
81223;SDS011;70698;44.402;18.522;2023-07-31T14:08:10;3.78;;;2.17;;
81223;SDS011;70698;44.402;18.522;2023-07-31T14:10:35;2.03;;;1.83;;
81223;SDS011;70698;44.402;18.522;2023-07-31T14:13:01;3.08;;;2.15;;
81223;SDS011;70698;44.402;18.522;2023-07-31T14:15:26;3.78;;;1.90;;
81223;SDS011;70698;44.402;18.522;2023-07-31T14:17:52;3.42;;;2.30;;
81223;SDS011;70698;44.402;18.522;2023-07-31T14:20:18;2.33;;;2.13;;
81223;SDS011;70698;44.402;18.522;2023-07-31T14:22:44;2.78;;;2.13;;
81223;SDS011;70698;44.402;18.522;2023-07-31T14:25:09;2.50;;;2.20;;
81223;SDS011;70698;44.402;18.522;2023-07-31T14:27:35;4.97;;;2.47;;
81223;SDS011;70698;44.402;18.522;2023-07-31T14:30:02;3.23;;;2.40;;
81223;SDS011;70698;44.402;18.522;2023-07-31T14:32:28;4.80;;;2.38;;
81223;SDS011;70698;44.402;18.522;2023-07-31T14:34:54;3.53;;;2.40;;
81223;SDS011;70698;44.402;18.522;2023-07-31T14:37:20;3.05;;;2.20;;
81223;SDS011;70698;44.402;18.522;2023-07-31T14:39:46;3.38;;;2.30;;
81223;SDS011;70698;44.402;18.522;2023-07-31T14:42:11;3.20;;;2.35;;
81223;SDS011;70698;44.402;18.522;2023-07-31T14:44:37;3.17;;;2.45;;
81223;SDS011;70698;44.402;18.522;2023-07-31T14:47:03;2.75;;;2.20;;
81223;SDS011;70698;44.402;18.522;2023-07-31T14:49:29;3.05;;;2.33;;
81223;SDS011;70698;44.402;18.522;2023-07-31T14:51:54;3.33;;;2.33;;
81223;SDS011;70698;44.402;18.522;2023-07-31T14:54:20;3.75;;;2.60;;
81223;SDS011;70698;44.402;18.522;2023-07-31T14:56:46;3.25;;;2.42;;